Time;durP1;ratioP1;P1;durP2;ratioP2;P2;SDS_P1;SDS_P2;PMS_P1;PMS_P2;Temp;Humidity;BMP_temperature;BMP_pressure;BME280_temperature;BME280_humidity;BME280_pressure;Samples;Min_cycle;Max_cycle;Signal;HPM_P1;HPM_P2
2022/10/28 00:03:24;;;;;;;8.18;4.78;;;;;;;;;;12887144;23;20012;-76
2022/10/28 00:08:24;;;;;;;12.10;4.53;;;;;;;;;;12912622;23;19992;-75
2022/10/28 00:13:24;;;;;;;10.80;3.80;;;;;;;;;;12914557;22;20075;-76
2022/10/28 00:18:24;;;;;;;8.45;4.38;;;;;;;;;;12913244;23;19992;-74
2022/10/28 00:23:25;;;;;;;7.75;4.50;;;;;;;;;;12919759;23;20007;-75
2022/10/28 00:28:25;;;;;;;9.65;5.00;;;;;;;;;;12912866;23;20054;-82
2022/10/28 00:33:25;;;;;;;7.38;3.65;;;;;;;;;;12912420;23;20000;-75
2022/10/28 00:38:25;;;;;;;13.23;4.10;;;;;;;;;;12912787;23;20070;-75
2022/10/28 00:43:45;;;;;;;17.10;5.00;;;;;;;;;;12918796;22;20010;-78
2022/10/28 00:48:49;;;;;;;7.35;3.90;;;;;;;;;;12912541;23;19995;-75
2022/10/28 00:53:50;;;;;;;6.68;3.83;;;;;;;;;;12915988;23;19996;-75
2022/10/28 00:58:53;;;;;;;6.05;3.50;;;;;;;;;;12933723;22;20073;-74
2022/10/28 01:03:55;;;;;;;8.50;4.35;;;;;;;;;;12930350;22;20014;-74
2022/10/28 01:08:55;;;;;;;12.57;3.90;;;;;;;;;;12941943;23;19998;-73
2022/10/28 01:13:55;;;;;;;6.07;3.20;;;;;;;;;;12941200;22;20035;-76
2022/10/28 01:19:02;;;;;;;11.57;4.40;;;;;;;;;;12933585;22;19992;-78
2022/10/28 01:24:05;;;;;;;6.35;3.85;;;;;;;;;;12936391;22;20083;-79
2022/10/28 01:29:24;;;;;;;7.55;3.65;;;;;;;;;;12916657;23;20139;-79
2022/10/28 01:34:24;;;;;;;;;;;;;;;;;;12916732;23;20079;-73
2022/10/28 01:39:25;;;;;;;15.07;4.13;;;;;;;;;;12915348;23;19926;-74
2022/10/28 01:44:25;;;;;;;10.57;4.63;;;;;;;;;;12916025;23;19996;-80
2022/10/28 01:49:39;;;;;;;9.05;4.70;;;;;;;;;;12915561;23;20075;-74
2022/10/28 01:54:41;;;;;;;8.90;4.10;;;;;;;;;;12915147;23;19996;-73
2022/10/28 01:59:42;;;;;;;10.48;4.50;;;;;;;;;;12915596;23;20006;-75
2022/10/28 02:04:42;;;;;;;9.33;3.57;;;;;;;;;;12914422;23;20050;-75
2022/10/28 02:10:01;;;;;;;5.38;3.22;;;;;;;;;;12926993;22;19989;-74
2022/10/28 02:15:04;;;;;;;5.65;3.67;;;;;;;;;;12914574;23;20389;-80
2022/10/28 02:20:37;;;;;;;7.88;3.50;;;;;;;;;;12914006;23;20016;-73
2022/10/28 02:25:44;;;;;;;6.68;3.38;;;;;;;;;;12877394;22;20004;-74
2022/10/28 02:30:44;;;;;;;8.35;3.78;;;;;;;;;;12937069;22;20074;-75
2022/10/28 02:35:50;;;;;;;7.88;3.65;;;;;;;;;;12915003;23;20025;-74
2022/10/28 02:40:52;;;;;;;6.72;4.13;;;;;;;;;;12914430;22;19996;-74
2022/10/28 02:45:56;;;;;;;10.10;3.63;;;;;;;;;;12937325;22;19996;-75
2022/10/28 02:51:02;;;;;;;9.88;4.72;;;;;;;;;;12888186;23;20318;-78
2022/10/28 02:56:03;;;;;;;6.45;4.03;;;;;;;;;;12936380;22;20436;-73
2022/10/28 03:01:03;;;;;;;6.43;4.07;;;;;;;;;;12913754;23;19996;-72
2022/10/28 03:06:03;;;;;;;8.35;3.92;;;;;;;;;;12936123;22;20016;-74
2022/10/28 03:11:04;;;;;;;8.90;4.13;;;;;;;;;;12914483;23;20428;-76
2022/10/28 03:16:04;;;;;;;7.20;3.53;;;;;;;;;;12914847;23;20683;-74
2022/10/28 03:21:04;;;;;;;7.43;3.72;;;;;;;;;;12921544;23;19995;-80
2022/10/28 03:26:05;;;;;;;9.60;4.60;;;;;;;;;;12916068;22;20022;-74
2022/10/28 03:31:05;;;;;;;12.48;4.85;;;;;;;;;;12940534;22;20424;-76
2022/10/28 03:36:06;;;;;;;5.65;4.15;;;;;;;;;;12914390;23;20027;-77
2022/10/28 03:41:06;;;;;;;6.93;3.90;;;;;;;;;;12913310;22;20007;-74
2022/10/28 03:46:06;;;;;;;8.32;4.35;;;;;;;;;;12911398;23;20004;-74
2022/10/28 03:51:06;;;;;;;9.30;6.03;;;;;;;;;;12936219;22;20555;-79
2022/10/28 03:56:07;;;;;;;8.07;3.85;;;;;;;;;;12913885;23;20036;-76
2022/10/28 04:01:07;;;;;;;7.77;4.70;;;;;;;;;;12912142;23;20000;-75
2022/10/28 04:06:09;;;;;;;8.98;4.72;;;;;;;;;;12934899;22;20083;-78
2022/10/28 04:11:09;;;;;;;8.93;4.88;;;;;;;;;;12912204;22;20049;-73
2022/10/28 04:16:09;;;;;;;7.68;5.00;;;;;;;;;;12911689;23;20031;-77
2022/10/28 04:21:09;;;;;;;9.38;4.85;;;;;;;;;;12911216;23;20048;-78
2022/10/28 04:26:09;;;;;;;10.52;4.95;;;;;;;;;;12911314;22;20034;-75
2022/10/28 04:31:11;;;;;;;6.60;4.43;;;;;;;;;;12911213;23;19996;-75
2022/10/28 04:36:11;;;;;;;10.07;4.10;;;;;;;;;;12926043;23;20368;-76
2022/10/28 04:41:12;;;;;;;10.93;5.20;;;;;;;;;;12910625;23;19992;-77
2022/10/28 04:46:12;;;;;;;10.55;5.40;;;;;;;;;;12933149;22;19992;-75
2022/10/28 04:51:13;;;;;;;9.10;5.07;;;;;;;;;;12910839;23;20061;-78
2022/10/28 04:56:13;;;;;;;6.80;3.80;;;;;;;;;;12886147;23;20000;-74
2022/10/28 05:01:14;;;;;;;8.43;4.95;;;;;;;;;;12911121;23;20031;-75
2022/10/28 05:06:14;;;;;;;14.37;5.10;;;;;;;;;;12885644;23;20024;-78
2022/10/28 05:11:14;;;;;;;26.45;6.32;;;;;;;;;;12936451;22;20042;-81
2022/10/28 05:16:14;;;;;;;20.85;5.88;;;;;;;;;;12910526;23;20464;-76
2022/10/28 05:21:15;;;;;;;11.77;6.28;;;;;;;;;;12910331;23;20463;-75
2022/10/28 05:26:15;;;;;;;29.52;7.35;;;;;;;;;;12910731;23;20019;-75
2022/10/28 05:31:16;;;;;;;15.02;7.53;;;;;;;;;;12933310;22;20316;-75
2022/10/28 05:36:16;;;;;;;15.65;7.15;;;;;;;;;;12909056;23;20002;-77
2022/10/28 05:41:17;;;;;;;17.25;7.13;;;;;;;;;;12918232;23;19999;-75
2022/10/28 05:46:17;;;;;;;12.80;5.70;;;;;;;;;;12912136;23;20027;-75
2022/10/28 05:51:17;;;;;;;18.38;5.43;;;;;;;;;;12949291;22;19991;-74
2022/10/28 05:56:17;;;;;;;10.93;4.60;;;;;;;;;;12937806;22;20069;-79
2022/10/28 06:01:18;;;;;;;12.35;4.63;;;;;;;;;;12916792;23;19993;-77
2022/10/28 06:06:18;;;;;;;12.45;6.00;;;;;;;;;;12917702;23;20530;-76
2022/10/28 06:11:18;;;;;;;10.13;4.60;;;;;;;;;;12937342;22;19988;-76
2022/10/28 06:16:18;;;;;;;12.70;5.40;;;;;;;;;;12913709;23;20004;-80
2022/10/28 06:21:19;;;;;;;10.48;4.60;;;;;;;;;;12914430;23;20066;-74
2022/10/28 06:26:19;;;;;;;9.77;5.40;;;;;;;;;;12915198;23;20000;-75
2022/10/28 06:31:19;;;;;;;11.48;5.30;;;;;;;;;;12913502;23;20407;-75
2022/10/28 06:36:19;;;;;;;10.68;5.75;;;;;;;;;;12930627;22;19992;-75
2022/10/28 06:41:20;;;;;;;13.93;6.90;;;;;;;;;;12913862;23;20497;-75
2022/10/28 06:46:20;;;;;;;19.30;6.97;;;;;;;;;;12913749;23;20000;-79
2022/10/28 06:51:20;;;;;;;16.43;7.23;;;;;;;;;;12912949;23;20058;-74
2022/10/28 06:56:21;;;;;;;14.50;6.83;;;;;;;;;;12888392;23;19996;-78
2022/10/28 07:01:21;;;;;;;18.43;7.07;;;;;;;;;;12912960;23;20027;-79
2022/10/28 07:06:21;;;;;;;12.15;7.25;;;;;;;;;;12912245;23;20008;-74
2022/10/28 07:11:23;;;;;;;25.23;7.40;;;;;;;;;;12912504;23;20016;-75
2022/10/28 07:16:23;;;;;;;19.02;7.00;;;;;;;;;;12912800;22;20028;-75
2022/10/28 07:21:27;;;;;;;17.42;7.03;;;;;;;;;;12887691;23;20019;-75
2022/10/28 07:26:27;;;;;;;14.32;5.95;;;;;;;;;;12922670;23;20066;-76
2022/10/28 07:31:28;;;;;;;17.30;6.25;;;;;;;;;;12934768;22;20496;-79
2022/10/28 07:36:28;;;;;;;18.67;7.20;;;;;;;;;;12912460;23;19992;-73
2022/10/28 07:41:29;;;;;;;20.63;7.65;;;;;;;;;;12912464;23;20082;-75
2022/10/28 07:46:30;;;;;;;35.47;8.23;;;;;;;;;;12912411;23;20007;-77
2022/10/28 07:51:30;;;;;;;17.60;7.10;;;;;;;;;;12912206;22;20448;-81
2022/10/28 07:56:30;;;;;;;25.57;9.53;;;;;;;;;;12912425;22;20007;-79
2022/10/28 08:01:31;;;;;;;28.60;9.20;;;;;;;;;;12911838;22;19996;-76
2022/10/28 08:06:32;;;;;;;17.63;7.77;;;;;;;;;;12911315;23;20429;-81
2022/10/28 08:11:32;;;;;;;25.65;10.65;;;;;;;;;;12912096;23;20432;-75
2022/10/28 08:16:33;;;;;;;31.17;10.32;;;;;;;;;;12911923;22;19996;-75
2022/10/28 08:21:33;;;;;;;29.85;11.18;;;;;;;;;;12911921;23;19996;-74
2022/10/28 08:26:33;;;;;;;36.58;13.07;;;;;;;;;;12924920;22;20060;-74
2022/10/28 08:31:33;;;;;;;26.80;10.20;;;;;;;;;;12912951;22;20455;-75
2022/10/28 08:36:34;;;;;;;27.98;11.38;;;;;;;;;;12947788;22;19988;-78
2022/10/28 08:41:46;;;;;;;21.83;9.10;;;;;;;;;;12917913;23;19992;-82
2022/10/28 08:47:00;;;;;;;21.13;9.25;;;;;;;;;;12913653;23;20239;-83
2022/10/28 08:52:12;;;;;;;18.98;8.25;;;;;;;;;;12911513;22;19992;-76
2022/10/28 08:57:19;;;;;;;32.35;8.55;;;;;;;;;;12911963;23;19992;-80
2022/10/28 09:02:21;;;;;;;17.15;7.95;;;;;;;;;;12932481;23;20083;-77
2022/10/28 09:07:23;;;;;;;17.83;7.35;;;;;;;;;;12886162;23;20012;-80
2022/10/28 09:12:29;;;;;;;17.80;7.93;;;;;;;;;;12911226;23;19996;-75
2022/10/28 09:17:36;;;;;;;18.40;7.15;;;;;;;;;;12915216;23;19993;-75
2022/10/28 09:22:42;;;;;;;16.75;6.57;;;;;;;;;;12915485;23;20042;-75
2022/10/28 09:27:54;;;;;;;12.80;6.10;;;;;;;;;;12889676;23;20004;-81
2022/10/28 09:33:01;;;;;;;20.38;5.53;;;;;;;;;;12915176;23;19996;-80
2022/10/28 09:38:22;;;;;;;11.52;4.70;;;;;;;;;;12915470;23;19992;-78
2022/10/28 09:43:46;;;;;;;17.67;5.65;;;;;;;;;;12915466;23;20464;-76
2022/10/28 09:48:47;;;;;;;11.18;3.63;;;;;;;;;;12899063;23;19992;-80
2022/10/28 09:53:51;;;;;;;8.50;4.00;;;;;;;;;;12937826;22;20013;-80
2022/10/28 09:58:51;;;;;;;11.45;3.40;;;;;;;;;;12936953;22;20129;-76
2022/10/28 10:03:52;;;;;;;5.90;3.10;;;;;;;;;;12914577;23;20549;-80
2022/10/28 10:08:54;;;;;;;8.73;2.50;;;;;;;;;;12915143;22;20020;-80
2022/10/28 10:13:56;;;;;;;11.43;2.20;;;;;;;;;;12914175;23;20000;-80
2022/10/28 10:18:58;;;;;;;10.90;2.63;;;;;;;;;;12888216;23;20002;-79
2022/10/28 10:23:58;;;;;;;9.75;2.50;;;;;;;;;;12913181;23;20313;-75
2022/10/28 10:28:58;;;;;;;7.13;2.92;;;;;;;;;;12913493;23;20309;-76
2022/10/28 10:33:59;;;;;;;6.28;2.45;;;;;;;;;;12914200;23;20038;-80
2022/10/28 10:39:00;;;;;;;3.40;1.55;;;;;;;;;;12913884;23;20071;-79
2022/10/28 10:44:01;;;;;;;3.05;1.27;;;;;;;;;;12912987;23;20345;-75
2022/10/28 10:49:05;;;;;;;7.22;1.40;;;;;;;;;;12913424;23;20000;-78
2022/10/28 10:54:12;;;;;;;12.63;2.55;;;;;;;;;;12913783;23;20054;-76
2022/10/28 10:59:31;;;;;;;14.38;3.58;;;;;;;;;;12935774;22;20042;-80
2022/10/28 11:04:35;;;;;;;5.88;1.98;;;;;;;;;;12935680;22;20035;-78
2022/10/28 11:09:38;;;;;;;3.25;2.40;;;;;;;;;;12913135;23;20466;-74
2022/10/28 11:14:51;;;;;;;10.88;2.55;;;;;;;;;;12913379;23;20451;-73
2022/10/28 11:19:59;;;;;;;6.88;2.08;;;;;;;;;;12913115;23;19999;-74
2022/10/28 11:25:02;;;;;;;6.32;2.38;;;;;;;;;;12888093;23;20451;-78
2022/10/28 11:30:04;;;;;;;4.78;2.08;;;;;;;;;;12912911;23;20008;-75
2022/10/28 11:35:18;;;;;;;3.00;2.00;;;;;;;;;;12935298;22;20002;-74
2022/10/28 11:40:36;;;;;;;6.15;2.72;;;;;;;;;;12912602;22;20504;-79
2022/10/28 11:45:36;;;;;;;4.93;2.67;;;;;;;;;;12912840;23;20079;-75
2022/10/28 11:50:42;;;;;;;9.20;3.05;;;;;;;;;;12912345;23;19996;-75
2022/10/28 11:55:46;;;;;;;6.97;3.20;;;;;;;;;;12912239;23;20011;-75
2022/10/28 12:00:58;;;;;;;13.88;2.78;;;;;;;;;;12911716;23;20046;-75
2022/10/28 12:06:05;;;;;;;8.43;2.30;;;;;;;;;;12911717;23;20070;-81
2022/10/28 12:11:23;;;;;;;10.63;2.97;;;;;;;;;;12911564;23;20035;-73
2022/10/28 12:16:43;;;;;;;6.82;2.72;;;;;;;;;;12911476;23;20103;-74
2022/10/28 12:21:56;;;;;;;6.50;2.88;;;;;;;;;;12911109;23;20057;-75
2022/10/28 12:26:58;;;;;;;11.07;3.42;;;;;;;;;;12922873;23;20004;-77
2022/10/28 12:32:07;;;;;;;9.20;3.42;;;;;;;;;;12917456;23;20341;-77
2022/10/28 12:37:12;;;;;;;10.45;4.05;;;;;;;;;;12917426;23;20000;-81
2022/10/28 12:42:31;;;;;;;6.57;3.08;;;;;;;;;;12916949;23;19992;-77
2022/10/28 12:47:39;;;;;;;4.00;2.92;;;;;;;;;;12920003;23;20071;-74
2022/10/28 12:52:43;;;;;;;8.48;2.75;;;;;;;;;;12912351;22;20459;-76
2022/10/28 12:57:46;;;;;;;10.13;2.90;;;;;;;;;;12885325;23;20015;-73
2022/10/28 13:03:13;;;;;;;4.00;2.42;;;;;;;;;;12886239;23;20050;-71
2022/10/28 13:08:26;;;;;;;4.68;2.78;;;;;;;;;;12904590;23;20026;-75
2022/10/28 13:13:53;;;;;;;6.85;2.72;;;;;;;;;;12910004;23;20404;-73
2022/10/28 13:18:53;;;;;;;2.80;1.90;;;;;;;;;;12933267;22;20384;-76
2022/10/28 13:23:53;;;;;;;5.15;2.60;;;;;;;;;;12907807;23;19996;-74
2022/10/28 13:28:55;;;;;;;6.13;2.63;;;;;;;;;;12909093;23;20046;-73
2022/10/28 13:33:57;;;;;;;5.80;2.92;;;;;;;;;;12908508;23;20093;-75
2022/10/28 13:38:59;;;;;;;6.15;3.15;;;;;;;;;;12912705;22;20038;-75
2022/10/28 13:44:08;;;;;;;7.40;3.08;;;;;;;;;;12908732;23;20050;-75
2022/10/28 13:49:28;;;;;;;5.78;2.72;;;;;;;;;;12909133;23;20399;-78
2022/10/28 13:54:50;;;;;;;5.95;3.80;;;;;;;;;;12908065;23;20000;-77
2022/10/28 14:00:00;;;;;;;8.07;2.78;;;;;;;;;;12910927;22;19997;-75
2022/10/28 14:05:03;;;;;;;10.55;4.35;;;;;;;;;;12913635;22;20448;-73
2022/10/28 14:10:21;;;;;;;4.43;2.58;;;;;;;;;;12935473;22;19988;-76
2022/10/28 14:15:23;;;;;;;9.75;2.80;;;;;;;;;;12935065;22;20071;-76
2022/10/28 14:20:26;;;;;;;2.92;2.28;;;;;;;;;;12934924;22;19995;-79
2022/10/28 14:25:44;;;;;;;4.90;2.42;;;;;;;;;;12912105;23;20523;-78
2022/10/28 14:31:04;;;;;;;6.35;2.90;;;;;;;;;;12912386;23;19996;-74
2022/10/28 14:36:20;;;;;;;5.55;3.25;;;;;;;;;;12913066;23;19996;-74
2022/10/28 14:41:26;;;;;;;5.07;2.85;;;;;;;;;;12913655;23;19988;-73
2022/10/28 14:46:58;;;;;;;6.70;2.58;;;;;;;;;;12936146;22;20027;-77
2022/10/28 14:52:07;;;;;;;5.20;3.05;;;;;;;;;;12847607;23;19996;-77
2022/10/28 14:57:08;;;;;;;12.30;3.65;;;;;;;;;;12887790;23;20007;-73
2022/10/28 15:02:20;;;;;;;13.02;3.20;;;;;;;;;;12935474;22;20374;-77
2022/10/28 15:07:21;;;;;;;12.13;3.63;;;;;;;;;;12912664;23;20012;-73
2022/10/28 15:12:22;;;;;;;7.00;4.20;;;;;;;;;;12912728;22;20004;-74
2022/10/28 15:17:26;;;;;;;11.45;4.78;;;;;;;;;;12933391;22;20410;-77
2022/10/28 15:22:29;;;;;;;15.07;5.20;;;;;;;;;;12909358;23;19992;-75
2022/10/28 15:27:31;;;;;;;20.73;6.70;;;;;;;;;;12908860;23;20495;-75
2022/10/28 15:32:34;;;;;;;23.13;5.65;;;;;;;;;;12932896;23;20007;-79
2022/10/28 15:37:34;;;;;;;19.58;6.43;;;;;;;;;;12912342;23;20384;-80
2022/10/28 15:42:40;;;;;;;17.38;5.43;;;;;;;;;;12912351;23;20094;-74
2022/10/28 15:47:43;;;;;;;15.55;4.70;;;;;;;;;;12912226;23;20352;-78
2022/10/28 15:52:43;;;;;;;17.20;5.40;;;;;;;;;;12911644;23;20071;-79
2022/10/28 15:57:51;;;;;;;17.33;5.28;;;;;;;;;;12935506;22;20401;-80
2022/10/28 16:02:56;;;;;;;26.85;5.72;;;;;;;;;;12912486;23;20028;-73
2022/10/28 16:08:00;;;;;;;20.73;6.68;;;;;;;;;;12914264;23;20008;-80
2022/10/28 16:13:03;;;;;;;29.17;8.73;;;;;;;;;;12928618;22;20074;-78
2022/10/28 16:18:05;;;;;;;37.75;11.68;;;;;;;;;;12909088;23;20086;-76
2022/10/28 16:23:10;;;;;;;18.55;9.20;;;;;;;;;;12887310;23;20046;-74
2022/10/28 16:28:37;;;;;;;28.30;10.13;;;;;;;;;;12912528;23;19988;-78
2022/10/28 16:33:37;;;;;;;24.05;9.20;;;;;;;;;;12905951;23;20129;-74
2022/10/28 16:38:38;;;;;;;21.90;9.27;;;;;;;;;;12909543;23;20015;-74
2022/10/28 16:43:38;;;;;;;28.13;8.40;;;;;;;;;;12924367;22;20314;-76
2022/10/28 16:48:38;;;;;;;17.70;9.13;;;;;;;;;;12909572;23;20104;-82
2022/10/28 16:53:39;;;;;;;18.98;8.93;;;;;;;;;;12909232;23;20034;-75
2022/10/28 16:58:41;;;;;;;20.33;8.95;;;;;;;;;;12909431;23;20341;-74
2022/10/28 17:03:41;;;;;;;27.50;9.70;;;;;;;;;;12909218;23;20016;-75
2022/10/28 17:08:41;;;;;;;28.75;8.98;;;;;;;;;;12896055;22;20342;-74
2022/10/28 17:13:42;;;;;;;31.25;9.82;;;;;;;;;;12905251;23;20038;-77
2022/10/28 17:18:43;;;;;;;27.53;11.03;;;;;;;;;;12907041;23;20000;-74
2022/10/28 17:23:43;;;;;;;25.88;9.38;;;;;;;;;;12927839;22;20729;-74
2022/10/28 17:28:43;;;;;;;26.52;9.85;;;;;;;;;;12925636;22;20024;-74
2022/10/28 17:33:44;;;;;;;25.55;9.43;;;;;;;;;;12906609;22;20003;-73
2022/10/28 17:38:44;;;;;;;15.60;8.05;;;;;;;;;;12932583;22;20459;-75
2022/10/28 17:43:44;;;;;;;21.70;7.25;;;;;;;;;;12905426;23;20024;-76
2022/10/28 17:48:45;;;;;;;24.00;7.28;;;;;;;;;;12910513;22;19999;-74
2022/10/28 17:53:46;;;;;;;26.02;8.07;;;;;;;;;;12904341;23;20340;-74
2022/10/28 17:58:50;;;;;;;25.90;8.18;;;;;;;;;;12907994;23;19988;-79
2022/10/28 18:03:51;;;;;;;22.77;7.55;;;;;;;;;;12909230;22;20014;-73
2022/10/28 18:08:51;;;;;;;15.13;7.03;;;;;;;;;;12907679;22;20042;-79
2022/10/28 18:13:54;;;;;;;16.55;6.97;;;;;;;;;;12932082;22;20027;-76
2022/10/28 18:18:55;;;;;;;28.20;8.40;;;;;;;;;;12933386;22;19988;-76
2022/10/28 18:24:04;;;;;;;19.45;8.30;;;;;;;;;;12910857;23;20063;-78
2022/10/28 18:29:08;;;;;;;16.85;7.70;;;;;;;;;;12907270;23;20001;-77
2022/10/28 18:34:08;;;;;;;16.83;7.18;;;;;;;;;;12907985;23;20006;-78
2022/10/28 18:39:08;;;;;;;13.80;7.97;;;;;;;;;;12883204;23;20397;-73
2022/10/28 18:44:10;;;;;;;25.40;9.17;;;;;;;;;;12908393;23;20227;-75
2022/10/28 18:49:11;;;;;;;13.52;6.43;;;;;;;;;;12908879;23;20715;-73
2022/10/28 18:54:11;;;;;;;13.60;6.60;;;;;;;;;;12908470;23;20227;-75
2022/10/28 18:59:11;;;;;;;13.25;6.07;;;;;;;;;;12931211;22;20729;-76
2022/10/28 19:04:12;;;;;;;15.60;7.47;;;;;;;;;;12908005;23;20042;-76
2022/10/28 19:09:12;;;;;;;14.50;5.97;;;;;;;;;;12908478;23;20057;-77
2022/10/28 19:14:13;;;;;;;17.88;7.15;;;;;;;;;;12909565;23;20054;-78
2022/10/28 19:19:13;;;;;;;24.15;9.02;;;;;;;;;;12911418;23;20085;-74
2022/10/28 19:24:13;;;;;;;17.40;7.63;;;;;;;;;;12914744;22;20003;-77
2022/10/28 19:29:13;;;;;;;17.92;8.27;;;;;;;;;;12910494;22;20026;-74
2022/10/28 19:34:14;;;;;;;10.38;5.00;;;;;;;;;;12908674;23;20350;-75
2022/10/28 19:39:14;;;;;;;7.83;4.43;;;;;;;;;;12905072;22;20007;-78
2022/10/28 19:44:16;;;;;;;6.13;4.27;;;;;;;;;;12904311;23;19996;-78
2022/10/28 19:49:16;;;;;;;7.85;4.95;;;;;;;;;;12908363;23;19996;-76
2022/10/28 19:54:16;;;;;;;9.60;5.60;;;;;;;;;;12928955;22;20542;-75
2022/10/28 19:59:16;;;;;;;8.23;4.37;;;;;;;;;;12907760;22;19992;-79
2022/10/28 20:04:17;;;;;;;8.07;4.20;;;;;;;;;;12906964;23;20092;-74
2022/10/28 20:09:17;;;;;;;10.95;6.10;;;;;;;;;;12928694;23;20436;-79
2022/10/28 20:14:17;;;;;;;8.20;4.47;;;;;;;;;;12908549;23;20004;-74
2022/10/28 20:19:17;;;;;;;14.73;5.32;;;;;;;;;;12910320;22;20002;-75
2022/10/28 20:24:18;;;;;;;10.82;5.78;;;;;;;;;;12927404;22;20429;-76
2022/10/28 20:29:19;;;;;;;25.15;8.30;;;;;;;;;;12929497;22;20494;-75
2022/10/28 20:34:20;;;;;;;9.95;6.45;;;;;;;;;;12931002;22;20103;-74
2022/10/28 20:39:21;;;;;;;10.00;5.63;;;;;;;;;;12909244;23;20082;-75
2022/10/28 20:44:22;;;;;;;8.60;5.57;;;;;;;;;;12906573;23;20574;-78
2022/10/28 20:49:22;;;;;;;12.48;6.63;;;;;;;;;;12908070;23;20256;-74
2022/10/28 20:54:22;;;;;;;11.77;6.65;;;;;;;;;;12909358;23;19996;-75
2022/10/28 20:59:23;;;;;;;13.55;7.00;;;;;;;;;;12907175;22;20070;-75
2022/10/28 21:04:23;;;;;;;14.18;6.68;;;;;;;;;;12930584;22;20074;-75
2022/10/28 21:09:23;;;;;;;8.18;5.95;;;;;;;;;;12933126;22;20066;-76
2022/10/28 21:14:23;;;;;;;9.05;5.63;;;;;;;;;;12935277;22;20000;-75
2022/10/28 21:19:25;;;;;;;9.27;5.35;;;;;;;;;;12912702;23;19992;-74
2022/10/28 21:24:25;;;;;;;11.60;6.00;;;;;;;;;;12929104;22;20076;-78
2022/10/28 21:29:25;;;;;;;11.73;6.13;;;;;;;;;;12909651;23;20023;-74
2022/10/28 21:34:25;;;;;;;12.13;5.30;;;;;;;;;;12910372;23;19992;-75
2022/10/28 21:39:26;;;;;;;12.45;5.53;;;;;;;;;;12911088;23;19996;-75
2022/10/28 21:44:26;;;;;;;11.80;6.10;;;;;;;;;;12924060;22;20567;-78
2022/10/28 21:49:27;;;;;;;9.00;5.65;;;;;;;;;;12924263;22;20471;-74
2022/10/28 21:54:27;;;;;;;11.23;6.28;;;;;;;;;;12911621;23;20420;-80
2022/10/28 21:59:27;;;;;;;10.87;5.00;;;;;;;;;;12911890;22;20033;-73
2022/10/28 22:04:28;;;;;;;12.20;5.65;;;;;;;;;;12928504;22;20097;-75
2022/10/28 22:09:28;;;;;;;9.52;5.15;;;;;;;;;;12913371;23;20008;-79
2022/10/28 22:14:28;;;;;;;10.90;4.50;;;;;;;;;;12934127;23;20004;-74
2022/10/28 22:19:30;;;;;;;9.85;5.57;;;;;;;;;;12911863;23;19992;-76
2022/10/28 22:24:30;;;;;;;7.53;4.22;;;;;;;;;;12912561;22;20003;-75
2022/10/28 22:29:30;;;;;;;10.95;5.22;;;;;;;;;;12913184;23;19996;-75
2022/10/28 22:34:31;;;;;;;13.45;5.32;;;;;;;;;;12912905;23;20443;-74
2022/10/28 22:39:31;;;;;;;11.85;6.25;;;;;;;;;;12912497;22;20015;-77
2022/10/28 22:44:32;;;;;;;10.68;5.88;;;;;;;;;;12912787;23;20079;-73
2022/10/28 22:49:32;;;;;;;11.88;6.90;;;;;;;;;;12913224;23;20447;-79
2022/10/28 22:54:32;;;;;;;10.93;5.93;;;;;;;;;;12912551;22;19996;-77
2022/10/28 22:59:32;;;;;;;9.77;6.32;;;;;;;;;;12912846;23;20050;-76
2022/10/28 23:04:32;;;;;;;10.88;6.18;;;;;;;;;;12913218;23;20111;-77
2022/10/28 23:09:33;;;;;;;10.98;6.22;;;;;;;;;;12935157;22;19995;-81
2022/10/28 23:14:33;;;;;;;9.13;5.72;;;;;;;;;;12913467;22;20089;-78
2022/10/28 23:19:33;;;;;;;9.02;5.90;;;;;;;;;;12887523;23;20018;-75
2022/10/28 23:24:33;;;;;;;12.90;5.97;;;;;;;;;;12914735;23;20015;-79
2022/10/28 23:29:34;;;;;;;9.98;5.90;;;;;;;;;;12924647;23;19992;-81
2022/10/28 23:34:34;;;;;;;11.27;6.10;;;;;;;;;;12914164;22;19992;-80
2022/10/28 23:39:34;;;;;;;16.73;7.05;;;;;;;;;;12912783;23;19996;-74
2022/10/28 23:44:34;;;;;;;12.98;7.07;;;;;;;;;;12924433;22;20000;-77
2022/10/28 23:49:35;;;;;;;11.40;5.85;;;;;;;;;;12934986;22;20424;-78
2022/10/28 23:54:36;;;;;;;12.02;6.30;;;;;;;;;;12912071;23;20403;-75
2022/10/28 23:59:36;;;;;;;10.48;6.30;;;;;;;;;;12911744;23;20459;-74
